createdAt,value
2018-07-09T00:01:00.054Z,73.78
2018-07-09T00:02:09.880Z,73.68
2018-07-09T00:03:19.970Z,73.78
2018-07-09T00:04:30.051Z,73.68
2018-07-09T00:05:39.863Z,73.58
2018-07-09T00:06:49.676Z,73.58
2018-07-09T00:07:59.741Z,73.97
2018-07-09T00:09:09.542Z,73.88
2018-07-09T00:10:19.625Z,73.78
2018-07-09T00:11:29.707Z,74.07
2018-07-09T00:12:39.788Z,73.78
2018-07-09T00:13:49.603Z,73.97
2018-07-09T00:14:59.661Z,73.97
2018-07-09T00:16:09.483Z,73.58
2018-07-09T00:17:19.555Z,73.68
2018-07-09T00:18:29.664Z,73.68
2018-07-09T00:19:39.734Z,73.78
2018-07-09T00:20:49.552Z,73.68
2018-07-09T00:21:59.639Z,73.58
2018-07-09T00:23:09.188Z,73.58
2018-07-09T00:24:19.316Z,73.58
2018-07-09T00:32:17.305Z,73.65
2018-07-09T00:33:27.623Z,73.74
2018-07-09T00:34:37.447Z,73.65
2018-07-09T00:35:47.259Z,73.74
2018-07-09T00:36:57.352Z,73.65
2018-07-09T00:38:07.430Z,73.65
2018-07-09T00:39:17.493Z,73.74
2018-07-09T00:40:27.575Z,73.78
2018-07-09T00:41:37.653Z,73.68
2018-07-09T00:42:47.739Z,73.78
2018-07-09T00:43:57.893Z,73.68
2018-07-09T00:45:07.720Z,73.97
2018-07-09T00:46:17.799Z,73.74
2018-07-09T00:47:27.871Z,73.55
2018-07-09T00:48:38.000Z,73.84
2018-07-09T00:49:47.884Z,73.65
2018-07-09T00:50:58.101Z,73.55
2018-07-09T00:52:08.590Z,73.94
2018-07-09T00:53:18.406Z,73.55
2018-07-09T00:54:27.964Z,73.55
2018-07-09T00:55:38.091Z,73.94
2018-07-09T00:56:47.915Z,73.55
2018-07-09T00:57:57.995Z,73.65
2018-07-09T00:59:08.081Z,73.65
2018-07-09T01:00:18.160Z,73.74
2018-07-09T01:01:28.021Z,73.74
2018-07-09T01:02:37.837Z,73.65
2018-07-09T01:03:47.898Z,73.74
2018-07-09T01:04:57.710Z,74.22
2018-07-09T01:06:07.797Z,74.41
2018-07-09T01:07:17.861Z,74.13
2018-07-09T01:08:27.951Z,74.41
2018-07-09T01:09:38.021Z,74.22
2018-07-09T01:10:48.095Z,73.94
2018-07-09T01:11:58.172Z,73.94
2018-07-09T01:13:07.978Z,74.41
2018-07-09T01:14:18.060Z,74.22
2018-07-09T01:15:28.139Z,74.22
2018-07-09T01:16:38.237Z,74.41
2018-07-09T01:17:48.311Z,74.13
2018-07-09T01:18:58.437Z,74.51
2018-07-09T01:20:08.524Z,74.51
2018-07-09T01:21:18.401Z,74.22
2018-07-09T01:22:28.504Z,74.41
2018-07-09T01:23:38.588Z,73.94
2018-07-09T01:24:48.391Z,73.94
2018-07-09T01:25:58.466Z,73.94
2018-07-09T01:27:08.551Z,74.32
2018-07-09T01:28:18.630Z,74.51
2018-07-09T01:29:28.683Z,74.32
2018-07-09T01:30:38.794Z,74.41
2018-07-09T01:31:48.850Z,74.22
2018-07-09T01:32:58.937Z,74.32
2018-07-09T01:34:09.026Z,74.41
2018-07-09T01:35:19.097Z,74.22
2018-07-09T01:36:29.175Z,73.74
2018-07-09T01:37:39.239Z,73.74
2018-07-09T01:38:49.326Z,74.41
2018-07-09T01:39:59.404Z,74.22
2018-07-09T01:41:09.493Z,74.41
2018-07-09T01:42:19.565Z,74.51
2018-07-09T01:43:29.632Z,74.51
2018-07-09T01:44:39.445Z,74.22
2018-07-09T01:45:49.256Z,74.22
2018-07-09T01:46:59.092Z,74.22
2018-07-09T01:48:08.645Z,74.22
2018-07-09T01:49:18.726Z,74.51
2018-07-09T01:50:28.815Z,74.22
2018-07-09T01:51:38.877Z,74.32
2018-07-09T01:52:48.696Z,74.32
2018-07-09T01:53:58.764Z,74.22
2018-07-09T01:55:08.824Z,74.32
2018-07-09T01:56:18.904Z,74.22
2018-07-09T01:57:28.985Z,74.32
2018-07-09T01:58:39.062Z,74.32
2018-07-09T01:59:48.871Z,74.32
2018-07-09T02:00:58.936Z,74.32
2018-07-09T02:02:09.012Z,74.32
2018-07-09T02:03:19.083Z,74.13
2018-07-09T02:04:29.161Z,74.13
2018-07-09T02:05:38.972Z,74.13
2018-07-09T02:06:48.809Z,74.13
2018-07-09T02:07:58.603Z,74.32
2018-07-09T02:09:08.690Z,74.51
2018-07-09T02:10:18.767Z,74.32
2018-07-09T02:11:28.876Z,74.32
2018-07-09T02:12:38.688Z,74.32
2018-07-09T02:13:48.767Z,74.13
2018-07-09T02:14:58.903Z,74.32
2018-07-09T02:16:08.983Z,74.32
2018-07-09T02:17:19.052Z,74.13
2018-07-09T02:18:28.411Z,74.51
2018-07-09T02:19:38.210Z,74.51
2018-07-09T02:20:48.033Z,74.32
2018-07-09T02:21:58.111Z,74.32
2018-07-09T02:23:08.246Z,74.41
2018-07-09T02:24:18.337Z,74.41
2018-07-09T02:25:28.145Z,74.41
2018-07-09T02:26:38.219Z,74.41
2018-07-09T02:27:48.035Z,74.22
2018-07-09T02:28:57.846Z,74.51
2018-07-09T02:30:07.935Z,74.41
2018-07-09T02:31:17.755Z,73.65
2018-07-09T02:32:27.874Z,73.65
2018-07-09T02:33:37.935Z,73.65
2018-07-09T02:34:48.020Z,73.74
2018-07-09T02:35:58.145Z,73.74
2018-07-09T02:37:08.213Z,73.65
2018-07-09T02:38:18.295Z,73.74
2018-07-09T02:39:27.854Z,73.65
2018-07-09T02:40:37.952Z,73.65
2018-07-09T02:41:48.046Z,73.74
2018-07-09T02:42:58.125Z,74.41
2018-07-09T02:44:08.205Z,74.41
2018-07-09T02:45:18.010Z,73.84
2018-07-09T02:46:28.102Z,74.41
2018-07-09T02:47:38.168Z,74.41
2018-07-09T02:48:47.710Z,74.51
2018-07-09T02:49:57.299Z,74.22
2018-07-09T02:51:07.111Z,74.41
2018-07-09T02:52:17.249Z,74.41
2018-07-09T02:53:27.339Z,74.22
2018-07-09T02:54:37.151Z,74.32
2018-07-09T02:55:47.259Z,73.74
2018-07-09T02:56:57.342Z,73.84
2018-07-09T02:58:07.417Z,73.74
2018-07-09T02:59:17.503Z,74.51
2018-07-09T03:00:27.588Z,74.22
2018-07-09T03:01:37.411Z,74.22
2018-07-09T03:02:47.261Z,74.22
2018-07-09T03:35:33.110Z,68.35
2018-07-09T03:36:43.185Z,68.83
2018-07-09T03:37:52.983Z,69.5
2018-07-09T03:39:03.039Z,69.69
2018-07-09T03:40:12.838Z,70.4
2018-07-09T03:41:22.907Z,70.78
2018-07-09T03:42:32.709Z,71.46
2018-07-09T03:43:42.782Z,71.65
2018-07-09T03:44:52.837Z,72.03
2018-07-09T03:46:02.381Z,72.26
2018-07-09T03:47:12.488Z,72.74
2018-07-09T03:48:22.550Z,72.65
2018-07-09T03:49:32.618Z,72.74
2018-07-09T03:50:42.462Z,72.88
2018-07-09T03:51:52.546Z,72.88
2018-07-09T03:53:02.607Z,72.81
2018-07-09T03:54:12.472Z,72.81
2018-07-09T03:55:22.275Z,72.81
2018-07-09T03:56:32.088Z,73.05
2018-07-09T03:57:41.388Z,72.85
2018-07-09T03:58:51.515Z,73.24
2018-07-09T04:00:01.321Z,73.05
2018-07-09T04:01:11.407Z,72.99
2018-07-09T04:02:21.796Z,72.79
2018-07-09T04:03:31.875Z,72.69
2018-07-09T04:04:41.689Z,73.08
2018-07-09T04:05:51.505Z,72.92
2018-07-09T04:07:01.608Z,72.92
2018-07-09T04:08:11.677Z,72.83
2018-07-09T04:09:21.750Z,72.86
2018-07-09T04:10:31.978Z,72.58
2018-07-09T04:11:42.198Z,73.06
2018-07-09T04:12:52.140Z,72.48
2018-07-09T04:14:01.956Z,72.42
2018-07-09T04:15:11.773Z,72.71
2018-07-09T04:16:21.588Z,72.9
2018-07-09T04:17:31.667Z,72.52
2018-07-09T04:18:41.743Z,73.03
2018-07-09T04:19:51.553Z,72.84
2018-07-09T04:21:01.591Z,72.16
2018-07-09T04:22:11.713Z,71.88
2018-07-09T04:23:21.771Z,72.06
2018-07-09T04:24:31.847Z,71.91
2018-07-09T04:25:41.937Z,71.14
2018-07-09T04:26:52.015Z,69.01
2018-07-09T04:28:02.073Z,68.08
2018-07-09T04:29:11.874Z,65.89
2018-07-09T04:30:21.974Z,65.4
2018-07-09T04:31:32.038Z,64.69
2018-07-09T04:32:42.147Z,64.55
2018-07-09T04:33:52.217Z,63.64
2018-07-09T04:35:02.306Z,63.41
2018-07-09T04:36:12.116Z,63.54
2018-07-09T04:37:21.914Z,63.6
2018-07-09T04:38:31.727Z,63.43
2018-07-09T04:39:41.815Z,62.61
2018-07-09T04:40:51.882Z,62.94
2018-07-09T04:42:01.715Z,62.67
2018-07-09T04:43:11.878Z,63.1
2018-07-09T04:44:21.807Z,62.63
2018-07-09T04:45:31.623Z,62.08
2018-07-09T04:46:41.693Z,62.6
2018-07-09T04:47:51.781Z,62.73
2018-07-09T04:49:01.863Z,62.43
2018-07-09T04:50:11.688Z,62.37
2018-07-09T04:51:21.770Z,62.56
2018-07-09T04:52:31.909Z,62.69
2018-07-09T04:53:41.995Z,62.49
2018-07-09T04:54:52.093Z,62.59
2018-07-09T04:56:02.187Z,63.41
2018-07-09T04:57:11.744Z,62.62
2018-07-09T04:58:21.552Z,62.92
2018-07-09T04:59:31.625Z,62.92
2018-07-09T05:00:41.698Z,62.95
2018-07-09T05:01:51.777Z,62.75
2018-07-09T05:03:01.848Z,62.85
2018-07-09T05:04:11.925Z,63.47
2018-07-09T05:05:21.997Z,63.05
2018-07-09T05:06:31.547Z,62.95
2018-07-09T05:07:41.638Z,63.15
2018-07-09T05:08:51.455Z,63.15
2018-07-09T05:10:01.546Z,62.85
2018-07-09T05:11:11.615Z,63.15
2018-07-09T05:12:21.712Z,63.84
2018-07-09T05:13:31.528Z,63.9
2018-07-09T05:14:41.614Z,63.81
2018-07-09T05:15:51.708Z,63.31
2018-07-09T05:17:01.796Z,63.41
2018-07-09T05:18:11.888Z,62.92
2018-07-09T05:19:21.956Z,63.12
2018-07-09T05:20:32.110Z,62.92
2018-07-09T05:21:42.375Z,63.12
2018-07-09T05:22:52.194Z,63.12
2018-07-09T05:24:02.290Z,63.21
2018-07-09T05:25:12.111Z,63.12
2018-07-09T05:26:22.189Z,63.12
2018-07-09T05:27:32.287Z,63.12
2018-07-09T05:28:42.116Z,63.21
2018-07-09T05:29:51.939Z,63.21
2018-07-09T05:31:02.019Z,63.31
2018-07-09T05:32:12.162Z,62.92
2018-07-09T05:33:21.775Z,62.99
2018-07-09T05:34:31.945Z,62.92
2018-07-09T05:35:42.031Z,63.12
2018-07-09T05:36:52.123Z,62.82
2018-07-09T05:38:01.680Z,63.48
2018-07-09T05:39:11.756Z,63.38
2018-07-09T05:40:21.832Z,63.38
2018-07-09T05:41:31.895Z,63.78
2018-07-09T05:42:41.709Z,63.57
2018-07-09T05:43:51.557Z,63.64
2018-07-09T05:45:01.641Z,63.74
2018-07-09T05:46:11.785Z,63.74
2018-07-09T05:47:21.606Z,63.84
2018-07-09T05:48:31.681Z,63.64
2018-07-09T05:49:41.771Z,63.35
2018-07-09T05:50:51.581Z,63.87
2018-07-09T05:52:01.656Z,63.84
2018-07-09T05:53:11.517Z,63.84
2018-07-09T05:54:21.394Z,63.64
2018-07-09T05:55:31.491Z,63.94
2018-07-09T05:56:41.315Z,63.81
2018-07-09T05:57:51.395Z,63.61
2018-07-09T05:59:01.666Z,64.5
2018-07-09T06:00:11.860Z,64.3
2018-07-09T06:01:21.945Z,64.59
2018-07-09T06:02:32.045Z,64.59
2018-07-09T06:03:42.142Z,64.47
2018-07-09T06:04:52.016Z,65.03
2018-07-09T06:06:02.107Z,64.83
2018-07-09T06:07:12.235Z,65.29
2018-07-09T06:08:22.057Z,65.06
2018-07-09T06:09:32.158Z,64.96
2018-07-09T06:10:42.252Z,65.75
2018-07-09T06:11:52.342Z,65.55
2018-07-09T06:13:02.431Z,65.22
2018-07-09T06:14:12.253Z,65.62
2018-07-09T06:15:22.060Z,65.62
2018-07-09T06:16:32.136Z,65.78
2018-07-09T06:17:41.953Z,65.98
2018-07-09T06:18:51.528Z,66.17
2018-07-09T06:20:01.346Z,65.88
2018-07-09T06:21:11.452Z,65.75
2018-07-09T06:22:21.325Z,66.34
2018-07-09T06:23:31.428Z,66.73
2018-07-09T06:24:41.253Z,66.4
2018-07-09T06:25:51.326Z,66.99
2018-07-09T06:27:01.148Z,67.19
2018-07-09T06:28:10.991Z,66.89
2018-07-09T06:29:21.080Z,66.96
2018-07-09T06:30:30.915Z,66.96
2018-07-09T06:31:41.018Z,67.05
2018-07-09T06:32:51.118Z,67.32
2018-07-09T06:34:01.200Z,67.32
2018-07-09T06:35:11.022Z,67.77
2018-07-09T06:36:21.125Z,67.68
2018-07-09T06:37:30.682Z,68.16
2018-07-09T06:38:40.754Z,67.77
2018-07-09T06:39:50.844Z,68.32
2018-07-09T06:41:00.929Z,68.03
2018-07-09T06:42:11.004Z,68.23
2018-07-09T06:43:21.082Z,67.54
2018-07-09T06:44:30.898Z,67.93
2018-07-09T06:45:41.174Z,68.23
2018-07-09T06:46:51.006Z,68.1
2018-07-09T06:48:00.849Z,68.59
2018-07-09T06:49:10.963Z,68.88
2018-07-09T06:50:20.799Z,68.68
2018-07-09T06:51:30.888Z,68.36
2018-07-09T06:52:40.714Z,68.88
2018-07-09T06:53:50.531Z,69.14
2018-07-09T06:55:00.329Z,69.04
2018-07-09T06:56:10.404Z,69.1
2018-07-09T06:57:20.488Z,69.01
2018-07-09T06:58:30.652Z,69.01
2018-07-09T06:59:40.823Z,69.17
2018-07-09T07:00:50.636Z,69.56
2018-07-09T07:02:00.467Z,69.26
2018-07-09T07:03:10.615Z,69.82
2018-07-09T07:04:20.716Z,69.62
2018-07-09T07:05:30.573Z,69.78
2018-07-09T07:06:40.706Z,69.68
2018-07-09T07:07:50.821Z,69.88
2018-07-09T07:09:01.347Z,70.56
2018-07-09T07:10:11.931Z,70.56
2018-07-09T07:11:22.038Z,70.43
2018-07-09T07:12:32.105Z,70.23
2018-07-09T07:13:41.657Z,70.23
2018-07-09T07:14:51.482Z,70.23
2018-07-09T07:16:01.552Z,70.43
2018-07-09T07:17:11.636Z,70.88
2018-07-09T07:18:21.454Z,71.31
2018-07-09T07:19:31.012Z,71.17
2018-07-09T07:20:41.101Z,71.27
2018-07-09T07:21:51.200Z,71.37
2018-07-09T07:23:01.288Z,71.37
2018-07-09T07:24:11.107Z,71.08
2018-07-09T07:25:20.685Z,71.37
2018-07-09T07:26:30.833Z,71.08
2018-07-09T07:27:41.331Z,71.27
2018-07-09T07:28:51.437Z,71.14
2018-07-09T07:30:01.563Z,71.23
2018-07-09T07:31:11.654Z,71.23
2018-07-09T07:32:21.751Z,71.23
2018-07-09T07:33:31.834Z,71.33
2018-07-09T07:34:41.946Z,71.33
2018-07-09T07:35:52.048Z,71.23
2018-07-09T07:37:02.139Z,71.33
2018-07-09T07:38:12.218Z,71.14
2018-07-09T07:39:22.400Z,70.95
2018-07-09T07:40:32.837Z,70.85
2018-07-09T07:41:42.908Z,70.95
2018-07-09T07:42:52.740Z,70.85
2018-07-09T07:44:02.831Z,70.98
2018-07-09T07:45:12.902Z,71.04
2018-07-09T07:46:22.992Z,70.95
2018-07-09T07:47:33.062Z,70.88
2018-07-09T07:48:43.134Z,70.85
2018-07-09T07:49:53.215Z,71.14
2018-07-09T07:51:03.296Z,70.88
2018-07-09T07:52:13.389Z,70.88
2018-07-09T07:53:23.520Z,70.88
2018-07-09T07:54:33.600Z,70.98
2018-07-09T07:55:43.752Z,70.98
2018-07-09T07:56:53.674Z,71.08
2018-07-09T07:58:03.756Z,70.98
2018-07-09T07:59:13.855Z,70.88
2018-07-09T08:00:23.179Z,70.82
2018-07-09T08:01:33.317Z,70.88
2018-07-09T08:02:43.397Z,70.88
2018-07-09T08:03:53.635Z,70.82
2018-07-09T08:05:03.183Z,70.78
2018-07-09T08:06:13.290Z,70.92
2018-07-09T08:07:23.393Z,70.82
2018-07-09T08:08:33.510Z,71.11
2018-07-09T08:09:43.466Z,71.11
2018-07-09T08:10:53.831Z,71.11
2018-07-09T08:13:00.561Z,70.17
2018-07-09T08:14:35.180Z,70.47
2018-07-09T08:15:45.292Z,70.66
2018-07-09T08:16:55.389Z,71.15
2018-07-09T08:18:05.498Z,70.66
2018-07-09T08:19:15.601Z,70.95
2018-07-09T08:20:25.681Z,70.66
2018-07-09T08:21:35.770Z,70.66
2018-07-09T08:22:45.613Z,70.66
2018-07-09T08:23:55.695Z,71.05
2018-07-09T08:25:06.051Z,70.86
2018-07-09T08:26:16.526Z,70.95
2018-07-09T08:27:26.599Z,70.86
2018-07-09T08:28:36.772Z,70.95
2018-07-09T08:29:46.857Z,70.7
2018-07-09T08:30:56.847Z,71.18
2018-07-09T08:32:07.218Z,70.7
2018-07-09T08:33:17.314Z,70.7
2018-07-09T08:34:27.490Z,70.89
2018-07-09T08:35:37.588Z,71.22
2018-07-09T08:36:47.673Z,70.73
2018-07-09T08:37:57.681Z,70.14
2018-07-09T08:39:08.171Z,70.24
2018-07-09T08:40:18.287Z,70.34
2018-07-09T08:41:28.396Z,70.53
2018-07-09T08:42:38.231Z,70.83
2018-07-09T08:43:48.310Z,70.83
2018-07-09T08:44:58.328Z,70.73
2018-07-09T08:46:08.353Z,71.25
2018-07-09T08:47:18.452Z,71.25
2018-07-09T08:48:28.662Z,70.96
2018-07-09T08:49:38.678Z,70.76
2018-07-09T08:50:48.685Z,70.86
2018-07-09T08:51:58.446Z,70.92
2018-07-09T08:53:08.515Z,70.67
2018-07-09T08:54:18.549Z,70.76
2018-07-09T08:55:28.046Z,71.06
2018-07-09T08:56:38.067Z,70.86
2018-07-09T08:57:48.152Z,70.67
2018-07-09T08:58:58.167Z,70.51
2018-07-09T09:00:07.947Z,70.7
2018-07-09T09:01:17.807Z,70.41
2018-07-09T09:02:27.591Z,70.41
2018-07-09T09:03:37.618Z,70.61
2018-07-09T09:04:47.799Z,70.64
2018-07-09T09:05:57.583Z,70.61
2018-07-09T09:07:07.355Z,70.34
2018-07-09T09:08:17.371Z,70.73
2018-07-09T09:09:27.153Z,70.34
2018-07-09T09:10:36.924Z,70.64
2018-07-09T09:11:46.967Z,70.28
2018-07-09T09:12:56.998Z,70.09
2018-07-09T09:14:07.028Z,69.79
2018-07-09T09:15:16.794Z,70.09
2018-07-09T09:16:26.850Z,70.09
2018-07-09T09:17:37.136Z,70.02
2018-07-09T09:18:47.161Z,69.82
2018-07-09T09:19:57.196Z,70.21
2018-07-09T09:21:07.273Z,70.35
2018-07-09T09:22:17.298Z,69.86
2018-07-09T09:23:27.325Z,69.76
2018-07-09T09:24:37.342Z,69.67
2018-07-09T09:25:47.359Z,69.5
2018-07-09T09:26:57.390Z,70.09
2018-07-09T09:28:07.406Z,69.76
2018-07-09T09:29:17.185Z,70.54
2018-07-09T09:30:26.953Z,70.64
2018-07-09T09:31:37.135Z,70.25
2018-07-09T09:32:46.963Z,70.45
2018-07-09T09:33:56.988Z,70.15
2018-07-09T09:35:07.022Z,69.89
2018-07-09T09:36:17.064Z,69.89
2018-07-09T09:37:27.001Z,69.89
2018-07-09T09:38:37.282Z,69.05
2018-07-09T09:39:47.031Z,69.83
2018-07-09T09:40:57.080Z,69.64
2018-07-09T09:42:07.117Z,68.59
2018-07-09T09:43:17.089Z,68.91
2018-07-09T09:44:26.584Z,69.51
2018-07-09T09:45:36.618Z,68.98
2018-07-09T09:46:46.157Z,69.86
2018-07-09T09:47:55.956Z,69.86
2018-07-09T09:49:05.725Z,70.22
2018-07-09T09:50:15.757Z,69.44
2018-07-09T09:51:25.777Z,69.27
2018-07-09T09:52:35.791Z,69.27
2018-07-09T09:53:45.802Z,69.76
2018-07-09T09:54:55.372Z,69.57
2018-07-09T09:56:05.618Z,69.27
2018-07-09T09:57:15.659Z,69.21
2018-07-09T09:58:25.448Z,70.16
2018-07-09T09:59:35.458Z,70.32
2018-07-09T10:00:45.647Z,70.03
2018-07-09T10:01:55.715Z,69.83
2018-07-09T10:03:05.717Z,69.37
2018-07-09T10:04:15.733Z,68.33
2018-07-09T10:05:25.500Z,68.66
2018-07-09T10:06:35.590Z,68.69
2018-07-09T10:07:45.660Z,68.23
2018-07-09T10:08:55.679Z,68.17
2018-07-09T10:10:05.444Z,68.17
2018-07-09T10:11:15.214Z,68.37
2018-07-09T10:12:25.265Z,69.02
2018-07-09T10:13:35.344Z,68.63
2018-07-09T10:14:45.358Z,68.79
2018-07-09T10:15:55.381Z,68.73
2018-07-09T10:17:05.398Z,68.95
2018-07-09T10:18:15.415Z,69.25
2018-07-09T10:19:25.505Z,69.05
2018-07-09T10:20:35.022Z,68.73
2018-07-09T10:21:45.050Z,69.38
2018-07-09T10:22:55.097Z,70.03
2018-07-09T10:24:05.793Z,69.9
2018-07-09T10:25:15.834Z,68.91
2018-07-09T10:26:25.580Z,69.44
2018-07-09T10:27:35.332Z,69.57
2018-07-09T10:28:45.353Z,68.63
2018-07-09T10:29:55.390Z,68.92
2018-07-09T10:31:05.410Z,68.92
2018-07-09T10:32:15.170Z,69.21
2018-07-09T10:33:25.191Z,69.31
2018-07-09T10:34:34.969Z,68.95
2018-07-09T10:35:44.986Z,68.85
2018-07-09T10:36:55.018Z,68.99
2018-07-09T10:38:05.049Z,68.99
2018-07-09T10:39:15.066Z,68.99
2018-07-09T10:40:25.086Z,68.89
2018-07-09T10:41:34.859Z,68.89
2018-07-09T10:42:44.883Z,68.85
2018-07-09T10:43:54.653Z,69.15
2018-07-09T10:45:04.702Z,68.69
2018-07-09T10:46:14.783Z,68.99
2018-07-09T10:47:24.553Z,68.99
2018-07-09T10:48:34.570Z,68.89
2018-07-09T10:49:44.354Z,69.12
2018-07-09T10:50:54.371Z,68.92
2018-07-09T10:52:04.144Z,69.32
2018-07-09T10:53:14.169Z,68.92
2018-07-09T10:54:24.194Z,69.02
2018-07-09T10:55:34.206Z,69.18
2018-07-09T10:56:44.254Z,69.6
2018-07-09T10:57:54.280Z,69.51
2018-07-09T10:59:04.053Z,69.6
2018-07-09T11:00:14.085Z,69.96
2018-07-09T11:01:23.861Z,69.57
2018-07-09T11:02:33.367Z,68.79
2018-07-09T11:03:43.446Z,69.15
2018-07-09T11:04:53.485Z,68.79
2018-07-09T11:06:03.522Z,68.4
2018-07-09T11:07:13.547Z,68.04
2018-07-09T11:08:23.577Z,68.92
2018-07-09T11:09:33.356Z,68.92
2018-07-09T11:10:43.583Z,69.22
2018-07-09T11:11:53.619Z,69.09
2018-07-09T11:13:03.641Z,69.09
2018-07-09T11:14:13.409Z,67.84
2018-07-09T11:15:23.161Z,68.56
2018-07-09T11:16:33.191Z,68.2
2018-07-09T11:17:43.244Z,67.71
2018-07-09T11:18:53.259Z,68.3
2018-07-09T11:20:03.294Z,68.5
2018-07-09T11:21:13.313Z,68.73
2018-07-09T11:22:23.061Z,69.48
2018-07-09T11:23:33.107Z,70.03
2018-07-09T11:24:43.158Z,70.16
2018-07-09T11:25:52.951Z,71.11
2018-07-09T11:27:02.984Z,70.88
2018-07-09T11:28:13.023Z,71.53
2018-07-09T11:29:23.256Z,71.69
2018-07-09T11:30:33.400Z,71.5
2018-07-09T11:31:42.926Z,71.26
2018-07-09T11:32:52.710Z,71.26
2018-07-09T11:34:02.738Z,71.33
2018-07-09T11:35:12.778Z,71.33
2018-07-09T11:36:22.833Z,71.42
2018-07-09T11:37:33.241Z,71.42
2018-07-09T11:38:43.104Z,71.2
2018-07-09T11:39:52.622Z,71.2
2018-07-09T11:41:02.382Z,71.45
2018-07-09T11:42:12.530Z,71.94
2018-07-09T11:43:22.781Z,71.75
2018-07-09T11:44:32.538Z,72
2018-07-09T11:45:42.671Z,72.2
2018-07-09T11:46:52.697Z,71.51
2018-07-09T11:48:02.734Z,71.12
2018-07-09T11:49:12.533Z,71.51
2018-07-09T11:50:22.603Z,70.73
2018-07-09T11:51:32.629Z,70.8
2018-07-09T11:52:42.655Z,69.82
2018-07-09T11:53:52.179Z,69.67
2018-07-09T11:55:01.657Z,69.79
2018-07-09T11:56:11.734Z,69.6
2018-07-09T11:57:21.512Z,70.09
2018-07-09T11:58:31.012Z,70.09
2018-07-09T11:59:41.193Z,69.15
2018-07-09T12:00:51.208Z,68.52
2018-07-09T12:02:01.447Z,69.21
2018-07-09T12:03:11.285Z,68.69
2018-07-09T12:04:21.051Z,68.3
2018-07-09T12:05:30.800Z,68.23
2018-07-09T12:06:40.845Z,68.27
2018-07-09T12:07:50.888Z,67.91
2018-07-09T12:09:00.643Z,68.95
2018-07-09T12:10:10.411Z,68.63
2018-07-09T12:11:20.295Z,68.99
2018-07-09T12:12:30.453Z,68.56
2018-07-09T12:13:40.235Z,68.23
2018-07-09T12:14:50.258Z,67.94
2018-07-09T12:16:00.280Z,67.97
2018-07-09T12:17:10.307Z,67.51
2018-07-09T12:18:20.317Z,68.13
2018-07-09T12:19:30.340Z,69.06
2018-07-09T12:20:40.111Z,69.02
2018-07-09T12:21:49.622Z,68.92
2018-07-09T12:22:59.389Z,68.79
2018-07-09T12:24:09.422Z,69.09
2018-07-09T12:25:19.440Z,69.48
2018-07-09T12:26:29.445Z,70.39
2018-07-09T12:27:39.468Z,71.21
2018-07-09T12:28:49.324Z,71.73
2018-07-09T12:29:59.574Z,71.79
2018-07-09T12:31:09.347Z,71.95
2018-07-09T12:32:19.109Z,71.72
2018-07-09T12:33:29.120Z,71.33
2018-07-09T12:34:39.141Z,70.97
2018-07-09T12:35:48.894Z,70.87
2018-07-09T12:36:58.969Z,70.68
2018-07-09T12:38:09.005Z,70.22
2018-07-09T12:39:18.763Z,70.03
2018-07-09T12:40:28.773Z,70.32
2018-07-09T12:41:38.818Z,70.36
2018-07-09T12:42:48.891Z,69.96
2018-07-09T12:43:58.891Z,70.16
2018-07-09T12:45:08.929Z,70.26
2018-07-09T12:46:18.940Z,70.06
2018-07-09T12:47:28.701Z,70.36
2018-07-09T12:48:38.463Z,70.16
2018-07-09T12:49:48.349Z,70.16
2018-07-09T12:50:58.609Z,70.16
2018-07-09T12:52:08.675Z,70.45
2018-07-09T12:53:18.410Z,70.26
2018-07-09T12:54:28.180Z,70.19
2018-07-09T12:55:38.311Z,70.26
2018-07-09T12:56:48.310Z,70.45
2018-07-09T12:57:58.097Z,70.16
2018-07-09T12:59:07.876Z,70.39
2018-07-09T13:00:17.907Z,70.19
2018-07-09T13:01:28.006Z,70.29
2018-07-09T13:02:38.544Z,70
2018-07-09T13:03:48.566Z,70
2018-07-09T13:04:58.589Z,70.19
2018-07-09T13:06:08.364Z,70.39
2018-07-09T13:07:18.387Z,70.09
2018-07-09T13:08:28.394Z,70.29
2018-07-09T13:09:38.417Z,70.19
2018-07-09T13:10:47.664Z,70.19
2018-07-09T13:11:57.687Z,70.09
2018-07-09T13:13:07.705Z,70.29
2018-07-09T13:14:17.470Z,69.6
2018-07-09T13:15:27.598Z,69.84
2018-07-09T13:16:37.615Z,69.9
2018-07-09T13:17:47.401Z,69.8
2018-07-09T13:18:57.462Z,69.84
2018-07-09T13:20:07.528Z,69.51
2018-07-09T13:21:17.287Z,69.64
2018-07-09T13:22:27.302Z,69.7
2018-07-09T13:23:37.311Z,69.8
2018-07-09T13:24:47.349Z,70.23
2018-07-09T13:25:57.387Z,69.73
2018-07-09T13:27:07.446Z,69.9
2018-07-09T13:28:17.467Z,69.93
2018-07-09T13:29:27.499Z,69.54
2018-07-09T13:30:37.261Z,69.15
2018-07-09T13:31:47.280Z,69.54
2018-07-09T13:32:57.342Z,69.34
2018-07-09T13:34:07.418Z,69.44
2018-07-09T13:35:17.449Z,69.54
2018-07-09T13:36:27.479Z,68.98
2018-07-09T13:37:37.497Z,69.28
2018-07-09T13:38:47.526Z,68.69
2018-07-09T13:39:57.546Z,68.88
2018-07-09T13:41:07.573Z,69.18
2018-07-09T13:42:17.594Z,68.73
2018-07-09T13:43:27.607Z,68.92
2018-07-09T13:44:37.366Z,68.63
2018-07-09T13:45:47.395Z,69.12
2018-07-09T13:46:57.169Z,68.33
2018-07-09T13:48:06.931Z,68.82
2018-07-09T13:49:17.008Z,69.12
2018-07-09T13:50:26.798Z,69.35
2018-07-09T13:51:36.830Z,68.95
2018-07-09T13:52:46.597Z,68.37
2018-07-09T13:53:56.350Z,68.49
2018-07-09T13:55:06.374Z,68.49
2018-07-09T13:56:16.403Z,68.1
2018-07-09T13:57:26.431Z,68.43
2018-07-09T13:58:36.468Z,68.33
2018-07-09T13:59:46.484Z,68.56
2018-07-09T14:00:56.104Z,68.17
2018-07-09T14:02:05.884Z,68.27
2018-07-09T14:03:15.668Z,68.2
2018-07-09T14:04:25.682Z,68.63
2018-07-09T14:05:35.721Z,68.82
2018-07-09T14:06:45.800Z,68.63
2018-07-09T14:07:55.572Z,68.63
2018-07-09T14:09:05.579Z,68.63
2018-07-09T14:10:15.650Z,68.73
2018-07-09T14:11:26.018Z,69.02
2018-07-09T14:12:36.054Z,68.63
2018-07-09T14:13:46.089Z,68.46
2018-07-09T14:14:56.111Z,69.02
2018-07-09T14:16:05.868Z,68.63
2018-07-09T14:17:15.881Z,68.73
2018-07-09T14:18:25.904Z,68.56
2018-07-09T14:19:35.926Z,68.17
2018-07-09T14:20:45.678Z,68.07
2018-07-09T14:21:55.433Z,67.87
2018-07-09T14:23:05.206Z,68.96
2018-07-09T14:24:15.224Z,68.46
2018-07-09T14:25:25.244Z,69.09
2018-07-09T14:26:35.008Z,68.27
2018-07-09T14:27:44.767Z,68.1
2018-07-09T14:28:54.795Z,68.2
2018-07-09T14:30:04.598Z,67.94
2018-07-09T14:31:14.616Z,67.44
2018-07-09T14:32:24.378Z,67.18
2018-07-09T14:33:34.395Z,67.02
2018-07-09T14:34:44.422Z,67.51
2018-07-09T14:35:54.442Z,67.12
2018-07-09T14:37:04.650Z,67.32
2018-07-09T14:38:14.581Z,67.41
2018-07-09T14:39:24.347Z,68.2
2018-07-09T14:40:34.366Z,68.5
2018-07-09T14:41:44.403Z,68.46
2018-07-09T14:42:54.437Z,68.46
2018-07-09T14:44:04.479Z,68.73
2018-07-09T14:45:14.427Z,69.22
2018-07-09T14:46:24.584Z,69.09
2018-07-09T14:47:34.601Z,69.25
2018-07-09T14:48:44.374Z,69.61
2018-07-09T14:49:54.395Z,69.78
2018-07-09T14:51:04.162Z,70.23
2018-07-09T14:52:13.935Z,70.39
2018-07-09T14:53:24.034Z,70.26
2018-07-09T14:54:34.047Z,70.95
2018-07-09T14:55:44.094Z,71.37
2018-07-09T14:56:53.858Z,71.43
2018-07-09T14:58:03.938Z,71.62
2018-07-09T14:59:14.018Z,71.59
2018-07-09T15:00:24.082Z,71.59
2018-07-09T15:01:34.099Z,71.2
2018-07-09T15:02:44.138Z,70.36
2018-07-09T15:03:53.893Z,70.71
2018-07-09T15:05:03.932Z,70.45
2018-07-09T15:06:13.979Z,70.36
2018-07-09T15:07:24.025Z,70.39
2018-07-09T15:08:33.788Z,70
2018-07-09T15:09:44.004Z,69.8
2018-07-09T15:10:54.147Z,69.9
2018-07-09T15:12:03.922Z,70.09
2018-07-09T15:13:13.694Z,70
2018-07-09T15:14:23.461Z,70.39
2018-07-09T15:15:33.476Z,70.19
2018-07-09T15:16:43.299Z,70.09
2018-07-09T15:17:53.317Z,70.19
2018-07-09T15:19:03.087Z,70.29
2018-07-09T15:20:12.845Z,70
2018-07-09T15:21:22.863Z,70
2018-07-09T15:22:32.939Z,70.19
2018-07-09T15:23:43.009Z,70.09
2018-07-09T15:24:53.026Z,69.9
2018-07-09T15:26:02.797Z,69.9
2018-07-09T15:27:12.818Z,70.55
2018-07-09T15:28:22.579Z,70.84
2018-07-09T15:29:32.337Z,71.14
2018-07-09T15:30:42.401Z,70.84
2018-07-09T15:31:52.422Z,70.84
2018-07-09T15:33:02.457Z,70.84
2018-07-09T15:34:12.540Z,71
2018-07-09T15:35:22.555Z,70.61
2018-07-09T15:36:32.573Z,70.42
2018-07-09T15:37:42.104Z,70.71
2018-07-09T15:38:52.134Z,70.61
2018-07-09T15:40:02.142Z,70.51
2018-07-09T15:41:11.917Z,70.39
2018-07-09T15:42:21.736Z,70.48
2018-07-09T15:43:31.919Z,70.78
2018-07-09T15:44:41.946Z,70.58